Delray Beach, FL (33444)

5:46 PM EDT on August 31, 2016 (GMT -0400)
Delray Beach | | Change Station

Elev 30 ft 26.47 °N, 80.09 °W | Updated 16 seconds ago

Partly Cloudy
Partly Cloudy
85.1 °F
Feels Like 98 °F
N
3.2
Wind Variable Wind from SE
Gusts 5.8 mph

Today
High -- | Low -- °F
--% Chance of Precip.
Yesterday
High -- | Low -- °F
Precip. -- in
Pressure 29.91 in
Visibility 10.0 miles
Clouds Few 1700 ft
Heat Index 98 °F
Dew Point 79 °F
Humidity 82%
Rainfall 0.03 in
Snow Depth Not available.
6:59 AM 7:40 PM
Waning Crescent, 0% visible
METAR KPMP 312053Z 16015G21KT 10SM FEW017 29/26 A2991 RMK AO2 RAE1955 SLP129 P0000 60001 T02940256 56014
Pressure 29.91 in
Visibility 10.0 miles
Clouds Few 1700 ft
Heat Index 98 °F
Dew Point 79 °F
Humidity 82%
Rainfall 0.03 in
Snow Depth Not available.
6:59 AM 7:40 PM
Waning Crescent, 0% visible
METAR KPMP 312053Z 16015G21KT 10SM FEW017 29/26 A2991 RMK AO2 RAE1955 SLP129 P0000 60001 T02940256 56014

10-Day Weather Forecast

Almanac

Astronomy

Aug. 31, 2016 Rise Set
Actual Time
Civil Twilight
Nautical Twilight
Astronomical Twilight
Moon
Length of Visible Light
Length of Day
Tomorrow will be .
, % of the Moon is Illuminated

Today's Extremes

State Highs State Lows

Community

WunderPhotos

Upload Photos

1,936,189 photos uploaded!

WunderBlog® & News

Nearby

Air Quality

  Air Quality AQ Index Pollutant
Not available.

Snow Depth

Station Depth Elevation

Earthquake Activity

City Distance Mag. Time & Date
Minimum magnitude displayed is 2.5.

Coastal Water Temperatures

Place Temperature

Stations

Nearby Weather Stations

Station Location Temp. Windchill Dew Point Humidity Wind Precip. Elev Updated Type
                   

Watches & Warnings

There are currently no watches in effect.